• Join FlightAware (Why Join?)
  • Login
  • US Flag 
03:38PM EDT


 

Airport Tracker/Info


-or-


 

Live Flight TrackerFlight Track Log ✈ UAL33 ✈ 21-Jul-2013 ✈ KORD - KIAH

Flight Track Log - Related Links

Times and Time Zones

All times are in EDT time to prevent confusion due to time zone crossing. See the UAL33 flight status page for this flight to view local times or setup timezone preferences in your user account.

Time Position Orientation Groundspeed Altitude Reporting Facility
EDT Latitude Longitude Course Direction KTS MPH feet Rate Location/Type
10:18PM 42.0500 -88.0167 252° West 260 299 5,000  Level Chicago TRACON
10:19PM 41.8632 -88.3671 242° Southwest  Level FlightAware Approximate
10:19PM 42.0547 -88.1356 273° West 269 310 9,900  Level Chicago Center
10:20PM 41.8246 -88.5230 254° West  Level FlightAware Approximate
10:20PM 42.0544 -88.2417 270° West 281 323 13,200  Level Chicago Center
10:21PM 41.7896 -88.6811 254° West  Level FlightAware Approximate
10:21PM 42.0300 -88.3461 253° West 301 346 15,600  Level Chicago Center
10:22PM 41.7545 -88.8390 253° West  Level FlightAware Approximate
10:22PM 41.9736 -88.4339 229° Southwest 312 359 19,000  Level Chicago Center
10:23PM 41.7177 -88.9961 252° West  Level FlightAware Approximate
10:23PM 41.9111 -88.5586 236° Southwest 341 392 21,400  Level Chicago Center
10:24PM 41.8731 -88.6967 250° West 396 456 22,800 1,260 Climbing Chicago Center
10:25PM 41.8311 -88.8506 250° West 429 494 24,000 1,260 Climbing Chicago Center
10:26PM 41.7831 -89.0200 249° West 474 545 25,500 1,500 Climbing Chicago Center
10:27PM 41.7353 -89.1928 250° West 494 568 27,100 1,620 Climbing Chicago Center
10:28PM 41.6864 -89.3706 250° West 509 586 28,900 2,340 Climbing Chicago Center
10:29PM 41.5733 -89.5228 225° Southwest 488 562 31,900 2,580 Climbing Chicago Center
10:30PM 41.4569 -89.6236 213° Southwest 487 560 34,200 1,920 Climbing Chicago Center
10:31PM 41.3494 -89.7178 213° Southwest 470 541 35,900 840 Climbing Chicago Center
10:32PM 41.2425 -89.8108 213° Southwest 463 533 36,000 240 Climbing Chicago Center
10:33PM 41.1364 -89.9011 213° Southwest 457 526 36,400 720 Climbing Chicago Center
10:34PM 41.0325 -89.9903 213° Southwest 451 519 37,500 1,020 Climbing Chicago Center
10:35PM 40.9144 -90.1028 216° Southwest 457 526 38,500 840 Climbing Chicago Center
10:36PM 40.8106 -90.1986 215° Southwest 458 527 39,300 660 Climbing Chicago Center
10:37PM 40.7061 -90.3033 217° Southwest 458 527 39,900 300 Climbing Chicago Center
10:38PM 40.6031 -90.4022 216° Southwest 461 531 40,000  Climbing Chicago Center
10:39PM 40.4994 -90.5014 216° Southwest 462 532 40,000  Level Chicago Center
10:40PM 40.3944 -90.6019 216° Southwest 465 535 40,000  Level Chicago Center
10:42PM 40.2903 -90.7008 216° Southwest 466 536 40,000  Level Chicago Center
10:43PM 40.1867 -90.7967 215° Southwest 464 534 40,000  Level Chicago Center
10:43PM 40.1028 -90.8747 215° Southwest 461 531 40,000  Level Kansas City Center
10:44PM 39.9800 -90.9914 216° Southwest 461 531 40,000  Level Kansas City Center
10:45PM 39.8767 -91.0883 216° Southwest 461 531 40,000  Level Kansas City Center
10:46PM 39.7728 -91.1856 216° Southwest 461 531 40,000  Level Kansas City Center
10:47PM 39.6700 -91.2803 215° Southwest 460 529 40,000  Level Kansas City Center
10:48PM 39.5644 -91.3794 216° Southwest 463 533 40,000  Level Kansas City Center
10:49PM 39.4586 -91.4761 215° Southwest 467 537 40,000  Level Kansas City Center
10:51PM 39.3528 -91.5731 215° Southwest 469 540 40,000  Level Kansas City Center
10:52PM 39.2300 -91.6853 215° Southwest 458 527 40,000  Level Kansas City Center
10:53PM 39.1331 -91.7764 216° Southwest 460 529 40,000  Level Kansas City Center
10:54PM 39.0267 -91.8722 215° Southwest 466 536 40,000  Level Kansas City Center
10:55PM 38.9181 -91.9714 215° Southwest 473 544 40,000  Level Kansas City Center
10:56PM 38.8117 -92.0667 215° Southwest 469 540 40,000  Level Kansas City Center
10:57PM 38.7044 -92.1622 215° Southwest 470 541 40,000  Level Kansas City Center
10:58PM 38.5764 -92.2775 215° Southwest 470 541 40,000  Level Kansas City Center
10:59PM 38.4697 -92.3736 215° Southwest 470 541 40,000  Level Kansas City Center
11:00PM 38.3614 -92.4683 214° Southwest 472 543 40,000  Level Kansas City Center
11:01PM 38.2558 -92.5628 215° Southwest 469 540 40,000  Level Kansas City Center
11:02PM 38.1419 -92.6611 214° Southwest 471 542 40,000  Level Kansas City Center
11:03PM 38.0408 -92.7500 215° Southwest 473 544 40,000  Level Kansas City Center
11:04PM 37.9331 -92.8422 214° Southwest 472 543 40,000 -60 Level Kansas City Center
11:05PM 37.8272 -92.9325 214° Southwest 465 535 39,900 -900 Descending Kansas City Center
11:06PM 37.7036 -93.0400 215° Southwest 453 521 38,200 -960 Descending Kansas City Center
11:07PM 37.5981 -93.1292 214° Southwest 454 522 38,000 -120 Descending Kansas City Center
11:08PM 37.4942 -93.2189 214° Southwest 453 521 38,000  Level Kansas City Center
11:09PM 37.3875 -93.3092 214° Southwest 460 529 38,000  Level Kansas City Center
11:10PM 37.2775 -93.4028 214° Southwest 471 542 38,000  Level Kansas City Center
11:11PM 37.1661 -93.4967 214° Southwest 479 551 38,000  Level Kansas City Center
11:12PM 37.0561 -93.5917 215° Southwest 481 554 38,000  Level Kansas City Center
11:13PM 36.9433 -93.6844 213° Southwest 483 556 38,000  Level Kansas City Center
11:14PM 36.8297 -93.7811 214° Southwest 482 555 38,000  Level Kansas City Center
11:15PM 36.7172 -93.8767 214° Southwest 484 557 38,000  Level Kansas City Center
11:16PM 36.6033 -93.9717 214° Southwest 489 563 38,000  Level Kansas City Center
11:17PM 36.4928 -94.0636 214° Southwest 482 555 38,000  Level Kansas City Center
11:18PM 36.3694 -94.1636 213° Southwest 497 572 38,000  Level Memphis Center
11:19PM 36.2583 -94.2564 214° Southwest 497 572 38,000  Level Memphis Center
11:20PM 36.1447 -94.3536 215° Southwest 497 572 38,000  Level Memphis Center
11:21PM 36.0333 -94.4458 214° Southwest 497 572 38,000  Level Memphis Center
11:22PM 35.9156 -94.5400 213° Southwest 497 572 38,000  Level Memphis Center
11:23PM 35.8039 -94.6314 214° Southwest 497 572 38,000  Level Memphis Center
11:24PM 35.6858 -94.7275 213° Southwest 503 579 38,000  Level Memphis Center
11:26PM 35.4092 -94.9533 214° Southwest 504 580 38,000  Level Fort Worth Center
11:27PM 35.2942 -95.0481 214° Southwest 504 580 38,000  Level Fort Worth Center
11:28PM 35.1750 -95.1403 212° Southwest 504 580 38,000  Level Fort Worth Center
11:29PM 35.0600 -95.2347 214° Southwest 504 580 38,000  Level Fort Worth Center
11:30PM 34.9447 -95.3289 214° Southwest 504 580 38,000  Level Fort Worth Center
11:31PM 34.8272 -95.4228 213° Southwest 504 580 38,000  Level Fort Worth Center
11:32PM 34.7056 -95.5167 212° Southwest 509 586 38,000  Level Fort Worth Center
11:33PM 34.5964 -95.5972 211° Southwest 509 586 38,000  Level Fort Worth Center
11:34PM 34.4767 -95.6903 213° Southwest 522 601 38,000  Level Fort Worth Center
11:35PM 34.3569 -95.7833 213° Southwest 517 595 38,000  Level Fort Worth Center
11:36PM 34.2350 -95.8761 212° Southwest 517 595 38,000  Level Fort Worth Center
11:37PM 34.1131 -95.9711 213° Southwest 522 601 38,000  Level Fort Worth Center
11:38PM 33.9992 -96.0631 214° Southwest 511 588 38,000  Level Fort Worth Center
11:39PM 33.8769 -96.1575 213° Southwest 517 595 38,000  Level Fort Worth Center
11:40PM 33.7569 -96.2492 212° Southwest 522 601 38,000  Level Fort Worth Center
11:41PM 33.6367 -96.3406 212° Southwest 522 601 38,000  Level Fort Worth Center
11:42PM 33.5142 -96.4319 212° Southwest 517 595 38,000  Level Fort Worth Center
11:43PM 33.3917 -96.5253 212° Southwest 522 601 38,000  Level Fort Worth Center
11:44PM 33.2692 -96.6183 212° Southwest 517 595 38,000  Level Fort Worth Center
11:45PM 33.1339 -96.6594 194° South 508 585 38,000  Level Fort Worth Center
11:46PM 32.9856 -96.6431 175° South 508 585 38,000  Level Fort Worth Center
11:47PM 32.8392 -96.6297 176° South 519 597 38,000  Level Fort Worth Center
11:48PM 32.6911 -96.6161 176° South 525 604 38,000  Level Fort Worth Center
11:49PM 32.5447 -96.6025 176° South 535 616 38,000  Level Fort Worth Center
11:50PM 32.4006 -96.5939 177° South 535 616 38,000  Level Fort Worth Center
11:51PM 32.2544 -96.5806 176° South 535 616 38,000  Level Fort Worth Center
11:52PM 32.1083 -96.5672 176° South 535 616 38,000  Level Fort Worth Center
11:53PM 31.9642 -96.5564 176° South 535 616 38,000  Level Fort Worth Center
11:54PM 31.8175 -96.5411 175° South 522 601 38,000  Level Houston Center
11:55PM 31.6731 -96.5292 176° South 517 595 38,000 -900 Level Houston Center
11:56PM 31.5542 -96.5164 175° South 513 590 36,300 -2,580 Descending Houston Center
11:57PM 31.4167 -96.4733 165° South 508 585 32,800 -3,720 Descending Houston Center
11:58PM 31.2844 -96.3922 152° Southeast 527 606 28,800 -3,720 Descending Houston Center
11:59PM 31.1503 -96.3061 151° Southeast 537 618 25,300 -3,180 Descending Houston Center
12:00AM 31.0228 -96.2244 151° Southeast 523 602 22,400 -2,880 Descending Houston Center
12:01AM 30.9014 -96.1478 152° Southeast 501 577 19,500 -2,880 Descending Houston Center
12:02AM 30.7864 -96.0742 151° Southeast 477 549 16,600 -3,000 Descending Houston Center
12:03AM 30.6664 -95.9986 152° Southeast 450 518 13,500 -2,940 Descending Houston Center
12:04AM 30.5997 -95.9550 151° Southeast 419 482 11,900 -2,520 Descending Houston Center
12:04AM 30.5508 -95.9244 152° Southeast 394 453 10,700 -1,320 Descending Houston Center
12:05AM 30.4728 -95.8761 152° Southeast 389 448 10,100 -600 Descending Houston Center
12:07AM 30.3911 -95.8000 141° Southeast 303 349 9,600 -720 Descending Houston Center
12:07AM 30.3269 -95.7736 160° South 320 368 8,700 -1,140 Descending Houston Center
12:08AM 30.2539 -95.7542 167° South 287 330 7,500 -1,200 Descending Houston Center
12:09AM 30.1781 -95.7333 167° South 283 326 6,300 -1,200 Descending Houston Center
12:10AM 30.1039 -95.7122 166° South 278 320 5,200 -1,080 Descending Houston Center
12:12AM 30.0139 -95.6894 168° South 230 265 4,000 -540 Descending Houston Center
12:13AM 29.9922 -95.6342 114° Southeast 199 229 4,000 -60 Level Houston Center
12:13AM 29.9911 -95.5897 92° East 218 251 3,900 -720 Descending Houston Center
12:14AM 29.9933 -95.5261 88° East 205 236 2,800 -1,080 Descending Houston Center
12:15AM 29.9936 -95.4642 90° East 201 231 1,800 -900 Descending Houston Center
12:17AM 29.9944 -95.4150 89° East 178 205 1,100 -720 Descending Houston Center
12:18AM 29.9939 -95.3717 91° East 150 173 400 -720 Descending Houston Center
12:19AM 29.9833 -95.3333 131° Southeast  Level FlightAware Approximate
12:26AM 29.9844 -95.3414 131° Southeast  Level Estimated